Itariri, Brazil
Current Conditions -  °F | °C
As of 10:00 AM on Saturday 20 Dec 2014 (Local Time) from SBSP Reporting Station
Clear Clear  
Wind Chill: 72°   Ceiling: Unl
Heat Index: 72°   Visibility: 6mi
Dew Point: 63°   Wind: 10mph
Humidity: 73%   Direction: 330°NNW
Pressure: 29.97"   Gusts: NA
Location:  24.29°S, 47.17°W
Report Text: SBSP 201200Z 33009KT CAVOK 22/17 Q1015
Loading
Personal Weather Stations






























Interactive Weather Map New forecast layout! Learn more

10-Day Weather Forecast

Advertisements
Track Severe Weather on mobile